createdAt,value
2019-03-25T00:00:30.939Z,8.98
2019-03-25T00:01:25.843Z,9.04
2019-03-25T00:02:25.823Z,9.01
2019-03-25T00:03:25.811Z,9.04
2019-03-25T00:04:25.836Z,8.94
2019-03-25T00:05:25.794Z,8.94
2019-03-25T00:06:25.775Z,8.94
2019-03-25T00:07:25.775Z,8.95
2019-03-25T00:08:25.758Z,8.94
2019-03-25T00:09:25.785Z,8.95
2019-03-25T00:10:25.748Z,8.91
2019-03-25T00:11:30.798Z,8.94
2019-03-25T00:12:25.727Z,8.87
2019-03-25T00:13:25.717Z,8.91
2019-03-25T00:14:25.703Z,8.79
2019-03-25T00:15:25.678Z,8.74
2019-03-25T00:16:25.675Z,8.77
2019-03-25T00:17:25.659Z,8.77
2019-03-25T00:18:25.647Z,8.73
2019-03-25T00:19:25.652Z,8.74
2019-03-25T00:20:25.614Z,8.74
2019-03-25T00:21:25.602Z,8.74
2019-03-25T00:22:30.617Z,8.73
2019-03-25T00:23:25.584Z,8.63
2019-03-25T00:24:25.606Z,8.61
2019-03-25T00:25:25.605Z,8.55
2019-03-25T00:26:25.568Z,8.50
2019-03-25T00:27:25.540Z,8.45
2019-03-25T00:28:25.537Z,8.47
2019-03-25T00:29:25.557Z,8.41
2019-03-25T00:30:25.531Z,8.47
2019-03-25T00:31:25.492Z,8.47
2019-03-25T00:32:25.490Z,8.53
2019-03-25T00:33:30.568Z,8.50
2019-03-25T00:34:25.520Z,8.44
2019-03-25T00:35:25.481Z,8.44
2019-03-25T00:36:25.473Z,8.47
2019-03-25T00:37:25.454Z,8.50
2019-03-25T00:38:25.418Z,8.45
2019-03-25T00:39:25.452Z,8.55
2019-03-25T00:40:25.405Z,8.52
2019-03-25T00:41:25.420Z,8.45
2019-03-25T00:42:25.369Z,8.37
2019-03-25T00:43:25.368Z,8.38
2019-03-25T00:44:30.446Z,8.45
2019-03-25T00:45:25.357Z,8.44
2019-03-25T00:46:25.369Z,8.36
2019-03-25T00:47:25.342Z,8.36
2019-03-25T00:48:25.305Z,8.43
2019-03-25T00:49:25.315Z,8.38
2019-03-25T00:50:25.274Z,8.37
2019-03-25T00:51:25.265Z,8.41
2019-03-25T00:52:25.275Z,8.34
2019-03-25T00:53:25.286Z,8.41
2019-03-25T00:54:25.704Z,8.26
2019-03-25T00:55:30.252Z,8.37
2019-03-25T00:56:25.226Z,8.28
2019-03-25T00:57:25.208Z,8.41
2019-03-25T00:58:25.201Z,8.30
2019-03-25T00:59:25.241Z,8.36
2019-03-25T01:00:25.166Z,8.30
2019-03-25T01:01:25.163Z,8.25
2019-03-25T01:02:25.141Z,8.30
2019-03-25T01:03:25.159Z,8.33
2019-03-25T01:04:25.146Z,8.33
2019-03-25T01:05:25.121Z,8.25
2019-03-25T01:06:30.115Z,8.23
2019-03-25T01:07:25.086Z,8.26
2019-03-25T01:08:25.100Z,8.30
2019-03-25T01:09:25.088Z,8.20
2019-03-25T01:10:25.085Z,8.33
2019-03-25T01:11:25.048Z,8.28
2019-03-25T01:12:25.036Z,8.25
2019-03-25T01:13:25.098Z,8.28
2019-03-25T01:14:25.022Z,8.25
2019-03-25T01:15:25.038Z,8.29
2019-03-25T01:16:24.989Z,8.25
2019-03-25T01:17:30.021Z,8.22
2019-03-25T01:18:24.967Z,8.28
2019-03-25T01:19:24.974Z,8.36
2019-03-25T01:20:25.113Z,8.36
2019-03-25T01:21:24.935Z,8.34
2019-03-25T01:22:24.939Z,8.33
2019-03-25T01:23:24.906Z,8.37
2019-03-25T01:24:24.893Z,8.40
2019-03-25T01:25:24.919Z,8.29
2019-03-25T01:26:24.882Z,8.38
2019-03-25T01:27:24.893Z,8.33
2019-03-25T01:28:29.873Z,8.25
2019-03-25T01:29:24.848Z,8.36
2019-03-25T01:30:25.230Z,8.29
2019-03-25T01:31:24.853Z,8.30
2019-03-25T01:32:24.829Z,8.36
2019-03-25T01:33:24.815Z,8.22
2019-03-25T01:34:24.781Z,8.33
2019-03-25T01:35:24.815Z,8.29
2019-03-25T01:36:24.771Z,8.26
2019-03-25T01:37:24.760Z,8.33
2019-03-25T01:38:24.740Z,8.29
2019-03-25T01:39:29.771Z,8.28
2019-03-25T01:40:24.759Z,8.25
2019-03-25T01:41:24.704Z,8.23
2019-03-25T01:42:24.699Z,8.29
2019-03-25T01:43:24.679Z,8.26
2019-03-25T01:44:24.672Z,8.29
2019-03-25T01:45:24.673Z,8.29
2019-03-25T01:46:24.646Z,8.23
2019-03-25T01:47:24.660Z,8.29
2019-03-25T01:48:24.638Z,8.19
2019-03-25T01:49:24.614Z,8.20
2019-03-25T01:50:29.629Z,8.18
2019-03-25T01:51:24.595Z,8.16
2019-03-25T01:52:24.624Z,8.15
2019-03-25T01:53:24.564Z,8.15
2019-03-25T01:54:24.554Z,8.07
2019-03-25T01:55:24.557Z,8.15
2019-03-25T01:56:24.544Z,8.10
2019-03-25T01:57:24.518Z,8.08
2019-03-25T01:58:24.514Z,8.12
2019-03-25T01:59:24.501Z,8.16
2019-03-25T02:00:24.502Z,8.11
2019-03-25T02:01:29.505Z,8.10
2019-03-25T02:02:24.478Z,8.11
2019-03-25T02:03:25.053Z,8.07
2019-03-25T02:04:24.444Z,8.04
2019-03-25T02:05:24.438Z,8.04
2019-03-25T02:06:24.419Z,8.02
2019-03-25T02:07:24.406Z,8.00
2019-03-25T02:08:24.414Z,8.02
2019-03-25T02:09:24.394Z,8.02
2019-03-25T02:10:24.374Z,8.00
2019-03-25T02:11:24.360Z,7.92
2019-03-25T02:12:29.371Z,7.98
2019-03-25T02:13:24.341Z,7.93
2019-03-25T02:14:24.329Z,7.89
2019-03-25T02:15:24.317Z,7.95
2019-03-25T02:16:24.310Z,7.93
2019-03-25T02:17:24.293Z,7.97
2019-03-25T02:18:24.286Z,7.90
2019-03-25T02:19:24.271Z,7.95
2019-03-25T02:20:26.684Z,8.01
2019-03-25T02:21:24.249Z,7.97
2019-03-25T02:22:24.272Z,7.97
2019-03-25T02:23:29.300Z,7.83
2019-03-25T02:24:24.214Z,7.90
2019-03-25T02:25:25.560Z,7.82
2019-03-25T02:26:24.317Z,7.79
2019-03-25T02:27:24.184Z,7.93
2019-03-25T02:28:24.170Z,7.87
2019-03-25T02:29:24.163Z,7.77
2019-03-25T02:30:24.171Z,7.85
2019-03-25T02:31:24.138Z,7.80
2019-03-25T02:32:24.124Z,7.79
2019-03-25T02:33:24.131Z,7.75
2019-03-25T02:34:29.124Z,7.74
2019-03-25T02:35:24.104Z,7.82
2019-03-25T02:36:24.081Z,7.74
2019-03-25T02:37:24.067Z,7.85
2019-03-25T02:38:24.054Z,7.80
2019-03-25T02:39:24.047Z,7.83
2019-03-25T02:40:24.035Z,7.75
2019-03-25T02:41:24.030Z,7.69
2019-03-25T02:42:24.010Z,7.69
2019-03-25T02:43:24.012Z,7.77
2019-03-25T02:44:23.999Z,7.63
2019-03-25T02:45:29.002Z,7.58
2019-03-25T02:46:23.967Z,7.64
2019-03-25T02:47:23.955Z,7.61
2019-03-25T02:48:23.941Z,7.61
2019-03-25T02:49:23.970Z,7.53
2019-03-25T02:50:23.988Z,7.46
2019-03-25T02:51:23.906Z,7.42
2019-03-25T02:52:23.897Z,7.40
2019-03-25T02:53:23.884Z,7.40
2019-03-25T02:54:23.883Z,7.34
2019-03-25T02:55:23.864Z,7.37
2019-03-25T02:56:28.883Z,7.32
2019-03-25T02:57:23.838Z,7.31
2019-03-25T02:58:23.827Z,7.25
2019-03-25T02:59:23.817Z,7.30
2019-03-25T03:00:23.807Z,7.28
2019-03-25T03:01:23.849Z,7.27
2019-03-25T03:02:23.782Z,7.15
2019-03-25T03:03:23.772Z,7.21
2019-03-25T03:04:23.763Z,7.20
2019-03-25T03:05:23.753Z,7.24
2019-03-25T03:06:23.737Z,7.09
2019-03-25T03:07:28.745Z,7.15
2019-03-25T03:08:23.713Z,7.02
2019-03-25T03:09:23.703Z,7.05
2019-03-25T03:10:23.699Z,7.02
2019-03-25T03:11:23.700Z,7.05
2019-03-25T03:12:23.669Z,7.05
2019-03-25T03:13:23.656Z,7.02
2019-03-25T03:14:23.646Z,7.03
2019-03-25T03:15:23.634Z,7.03
2019-03-25T03:16:23.644Z,6.98
2019-03-25T03:17:23.611Z,6.97
2019-03-25T03:18:28.620Z,6.94
2019-03-25T03:19:23.586Z,6.97
2019-03-25T03:20:23.681Z,6.98
2019-03-25T03:21:23.570Z,6.97
2019-03-25T03:22:23.560Z,6.98
2019-03-25T03:23:23.544Z,6.85
2019-03-25T03:24:23.529Z,6.87
2019-03-25T03:25:23.522Z,6.80
2019-03-25T03:26:23.508Z,6.76
2019-03-25T03:27:23.505Z,6.77
2019-03-25T03:28:23.496Z,6.76
2019-03-25T03:29:28.496Z,6.70
2019-03-25T03:30:23.484Z,6.64
2019-03-25T03:31:23.452Z,6.79
2019-03-25T03:32:23.458Z,6.67
2019-03-25T03:33:23.432Z,6.76
2019-03-25T03:34:23.425Z,6.64
2019-03-25T03:35:23.410Z,6.62
2019-03-25T03:36:23.396Z,6.61
2019-03-25T03:37:23.395Z,6.55
2019-03-25T03:38:23.372Z,6.67
2019-03-25T03:39:23.388Z,6.59
2019-03-25T03:40:28.375Z,6.61
2019-03-25T03:41:23.357Z,6.66
2019-03-25T03:42:23.406Z,6.62
2019-03-25T03:43:23.346Z,6.55
2019-03-25T03:44:23.406Z,6.61
2019-03-25T03:45:23.312Z,6.61
2019-03-25T03:46:23.283Z,6.55
2019-03-25T03:47:23.272Z,6.64
2019-03-25T03:48:23.260Z,6.55
2019-03-25T03:49:23.251Z,6.48
2019-03-25T03:50:23.238Z,6.40
2019-03-25T03:51:28.257Z,6.54
2019-03-25T03:52:23.227Z,6.49
2019-03-25T03:53:23.211Z,6.49
2019-03-25T03:54:23.200Z,6.44
2019-03-25T03:55:23.185Z,6.36
2019-03-25T03:56:23.206Z,6.41
2019-03-25T03:57:23.158Z,6.36
2019-03-25T03:58:23.149Z,6.44
2019-03-25T03:59:23.143Z,6.38
2019-03-25T04:00:23.129Z,6.34
2019-03-25T04:01:23.131Z,6.33
2019-03-25T04:02:28.141Z,6.34
2019-03-25T04:03:23.106Z,6.34
2019-03-25T04:04:23.084Z,6.37
2019-03-25T04:05:23.072Z,6.44
2019-03-25T04:06:23.064Z,6.34
2019-03-25T04:07:23.064Z,6.46
2019-03-25T04:08:23.042Z,6.44
2019-03-25T04:09:23.026Z,6.37
2019-03-25T04:10:23.028Z,6.33
2019-03-25T04:11:23.002Z,6.31
2019-03-25T04:12:22.993Z,6.30
2019-03-25T04:13:28.037Z,6.30
2019-03-25T04:14:22.974Z,6.27
2019-03-25T04:15:22.981Z,6.27
2019-03-25T04:16:22.955Z,6.34
2019-03-25T04:17:22.936Z,6.21
2019-03-25T04:18:22.936Z,6.27
2019-03-25T04:19:22.913Z,6.30
2019-03-25T04:20:22.902Z,6.28
2019-03-25T04:21:22.901Z,6.31
2019-03-25T04:22:22.901Z,6.19
2019-03-25T04:23:22.867Z,6.15
2019-03-25T04:24:27.888Z,6.12
2019-03-25T04:25:22.848Z,6.14
2019-03-25T04:26:28.852Z,6.09
2019-03-25T04:27:23.827Z,6.14
2019-03-25T04:28:22.813Z,6.14
2019-03-25T04:29:22.815Z,6.12
2019-03-25T04:30:22.790Z,6.14
2019-03-25T04:31:22.806Z,6.19
2019-03-25T04:32:22.769Z,6.14
2019-03-25T04:33:22.763Z,6.12
2019-03-25T04:34:22.743Z,6.14
2019-03-25T04:35:27.761Z,6.09
2019-03-25T04:36:22.733Z,6.12
2019-03-25T04:37:22.713Z,6.15
2019-03-25T04:38:22.700Z,6.09
2019-03-25T04:39:22.710Z,6.06
2019-03-25T04:40:22.679Z,6.17
2019-03-25T04:41:22.680Z,6.03
2019-03-25T04:42:22.657Z,6.14
2019-03-25T04:43:22.693Z,6.11
2019-03-25T04:44:22.634Z,6.09
2019-03-25T04:45:22.624Z,6.11
2019-03-25T04:46:27.634Z,6.14
2019-03-25T04:47:22.646Z,6.04
2019-03-25T04:48:22.592Z,6.01
2019-03-25T04:49:22.581Z,5.97
2019-03-25T04:50:22.566Z,5.94
2019-03-25T04:51:22.565Z,5.99
2019-03-25T04:52:22.542Z,5.94
2019-03-25T04:53:22.536Z,5.97
2019-03-25T04:54:22.529Z,5.93
2019-03-25T04:55:22.510Z,5.90
2019-03-25T04:56:22.500Z,5.86
2019-03-25T04:57:27.511Z,5.90
2019-03-25T04:58:22.484Z,5.93
2019-03-25T04:59:22.465Z,5.86
2019-03-25T05:00:22.474Z,5.94
2019-03-25T05:01:22.447Z,5.96
2019-03-25T05:02:22.435Z,5.99
2019-03-25T05:03:22.425Z,5.94
2019-03-25T05:04:22.412Z,5.96
2019-03-25T05:05:22.402Z,5.97
2019-03-25T05:06:22.397Z,5.94
2019-03-25T05:07:22.376Z,5.93
2019-03-25T05:08:27.391Z,5.96
2019-03-25T05:09:22.359Z,5.97
2019-03-25T05:10:22.345Z,6.08
2019-03-25T05:11:30.466Z,6.11
2019-03-25T05:12:23.321Z,6.11
2019-03-25T05:13:22.309Z,6.09
2019-03-25T05:14:22.308Z,6.18
2019-03-25T05:15:22.295Z,6.22
2019-03-25T05:16:22.288Z,6.11
2019-03-25T05:17:22.267Z,6.15
2019-03-25T05:18:22.255Z,6.15
2019-03-25T05:19:28.169Z,6.14
2019-03-25T05:20:22.232Z,6.18
2019-03-25T05:21:22.231Z,6.08
2019-03-25T05:22:22.210Z,6.21
2019-03-25T05:23:22.203Z,6.12
2019-03-25T05:24:22.189Z,6.17
2019-03-25T05:25:22.183Z,6.15
2019-03-25T05:26:22.165Z,6.18
2019-03-25T05:27:22.155Z,6.09
2019-03-25T05:28:22.144Z,6.04
2019-03-25T05:29:22.142Z,6.04
2019-03-25T05:30:27.147Z,5.91
2019-03-25T05:31:22.114Z,5.83
2019-03-25T05:32:22.097Z,5.82
2019-03-25T05:33:22.094Z,5.82
2019-03-25T05:34:22.077Z,5.89
2019-03-25T05:35:22.075Z,5.83
2019-03-25T05:36:22.057Z,5.90
2019-03-25T05:37:22.046Z,5.85
2019-03-25T05:38:22.032Z,5.83
2019-03-25T05:39:22.018Z,5.81
2019-03-25T05:40:22.019Z,5.83
2019-03-25T05:41:27.026Z,5.85
2019-03-25T05:42:21.989Z,5.85
2019-03-25T05:43:21.980Z,5.83
2019-03-25T05:44:21.963Z,5.89
2019-03-25T05:45:21.952Z,5.81
2019-03-25T05:46:21.945Z,5.85
2019-03-25T05:47:21.929Z,5.85
2019-03-25T05:48:21.921Z,5.81
2019-03-25T05:49:21.906Z,5.83
2019-03-25T05:50:21.899Z,5.74
2019-03-25T05:51:21.886Z,5.74
2019-03-25T05:52:26.897Z,5.68
2019-03-25T05:53:21.866Z,5.76
2019-03-25T05:54:21.858Z,5.71
2019-03-25T05:55:21.838Z,5.81
2019-03-25T05:56:21.835Z,5.81
2019-03-25T05:57:21.844Z,5.82
2019-03-25T05:58:21.826Z,5.79
2019-03-25T05:59:21.800Z,5.81
2019-03-25T06:00:21.783Z,5.90
2019-03-25T06:01:21.773Z,5.89
2019-03-25T06:02:21.762Z,6.03
2019-03-25T06:03:26.772Z,6.08
2019-03-25T06:04:21.748Z,6.04
2019-03-25T06:05:21.756Z,6.12
2019-03-25T06:06:21.725Z,6.21
2019-03-25T06:07:21.722Z,6.19
2019-03-25T06:08:21.694Z,6.19
2019-03-25T06:09:21.687Z,6.22
2019-03-25T06:10:21.706Z,6.34
2019-03-25T06:11:21.690Z,6.41
2019-03-25T06:12:21.657Z,6.34
2019-03-25T06:13:21.639Z,6.36
2019-03-25T06:14:26.648Z,6.34
2019-03-25T06:15:21.615Z,6.36
2019-03-25T06:16:21.608Z,6.49
2019-03-25T06:17:21.597Z,6.46
2019-03-25T06:18:21.581Z,6.41
2019-03-25T06:19:21.577Z,6.46
2019-03-25T06:20:21.571Z,6.54
2019-03-25T06:21:21.552Z,6.43
2019-03-25T06:22:21.537Z,6.41
2019-03-25T06:23:21.545Z,6.58
2019-03-25T06:24:21.516Z,6.59
2019-03-25T06:25:26.689Z,6.62
2019-03-25T06:26:21.500Z,6.58
2019-03-25T06:27:21.485Z,6.70
2019-03-25T06:28:21.473Z,6.76
2019-03-25T06:29:21.462Z,6.74
2019-03-25T06:30:21.454Z,6.76
2019-03-25T06:31:21.447Z,6.76
2019-03-25T06:32:21.428Z,6.77
2019-03-25T06:33:21.418Z,6.84
2019-03-25T06:34:21.404Z,6.87
2019-03-25T06:35:21.395Z,6.88
2019-03-25T06:36:26.424Z,6.94
2019-03-25T06:37:21.372Z,6.91
2019-03-25T06:38:21.359Z,6.94
2019-03-25T06:39:21.348Z,6.97
2019-03-25T06:40:21.337Z,6.94
2019-03-25T06:41:21.339Z,6.99
2019-03-25T06:42:21.315Z,7.02
2019-03-25T06:43:21.305Z,6.97
2019-03-25T06:44:21.292Z,7.09
2019-03-25T06:45:21.282Z,7.03
2019-03-25T06:46:22.325Z,7.09
2019-03-25T06:47:26.289Z,7.13
2019-03-25T06:48:21.252Z,7.12
2019-03-25T06:49:21.243Z,7.17
2019-03-25T06:50:21.230Z,7.17
2019-03-25T06:51:21.237Z,7.16
2019-03-25T06:52:21.203Z,7.25
2019-03-25T06:53:21.193Z,7.15
2019-03-25T06:54:21.186Z,7.17
2019-03-25T06:55:21.178Z,7.13
2019-03-25T06:56:21.171Z,7.15
2019-03-25T06:57:25.460Z,7.30
2019-03-25T06:58:26.166Z,7.31
2019-03-25T06:59:21.127Z,7.27
2019-03-25T07:00:21.114Z,7.23
2019-03-25T07:01:21.121Z,7.30
2019-03-25T07:02:21.116Z,7.37
2019-03-25T07:03:21.092Z,7.30
2019-03-25T07:04:21.071Z,7.32
2019-03-25T07:05:21.060Z,7.34
2019-03-25T07:06:21.061Z,7.31
2019-03-25T07:07:21.035Z,7.25
2019-03-25T07:08:21.024Z,7.35
2019-03-25T07:09:26.046Z,7.37
2019-03-25T07:10:21.000Z,7.32
2019-03-25T07:11:21.001Z,7.28
2019-03-25T07:12:20.977Z,7.32
2019-03-25T07:13:20.972Z,7.30
2019-03-25T07:14:20.956Z,7.42
2019-03-25T07:15:20.943Z,7.45
2019-03-25T07:16:20.943Z,7.42
2019-03-25T07:17:20.923Z,7.55
2019-03-25T07:18:20.911Z,7.57
2019-03-25T07:19:20.932Z,7.69
2019-03-25T07:20:25.912Z,7.79
2019-03-25T07:21:20.891Z,7.75
2019-03-25T07:22:20.869Z,7.74
2019-03-25T07:23:20.857Z,7.86
2019-03-25T07:24:20.843Z,7.80
2019-03-25T07:25:20.833Z,7.82
2019-03-25T07:26:20.836Z,7.90
2019-03-25T07:27:20.805Z,8.05
2019-03-25T07:28:20.807Z,8.10
2019-03-25T07:29:20.791Z,8.16
2019-03-25T07:30:20.773Z,8.30
2019-03-25T07:31:25.795Z,8.20
2019-03-25T07:32:20.754Z,8.29
2019-03-25T07:33:20.743Z,8.34
2019-03-25T07:34:20.735Z,8.40
2019-03-25T07:35:22.461Z,8.50
2019-03-25T07:36:20.709Z,8.63
2019-03-25T07:37:20.700Z,8.63
2019-03-25T07:38:20.683Z,8.68
2019-03-25T07:39:20.676Z,8.59
2019-03-25T07:40:20.659Z,8.59
2019-03-25T07:41:20.659Z,8.61
2019-03-25T07:42:25.677Z,8.61
2019-03-25T07:43:20.629Z,8.70
2019-03-25T07:44:20.614Z,8.77
2019-03-25T07:45:20.623Z,8.73
2019-03-25T07:46:20.599Z,8.79
2019-03-25T07:47:20.582Z,8.84
2019-03-25T07:48:20.571Z,8.94
2019-03-25T07:49:20.601Z,8.86
2019-03-25T07:50:20.557Z,8.91
2019-03-25T07:51:20.539Z,8.96
2019-03-25T07:52:20.526Z,9.04
2019-03-25T07:53:25.536Z,9.20
2019-03-25T07:54:20.500Z,9.36
2019-03-25T07:55:20.492Z,9.42
2019-03-25T07:56:20.489Z,9.20
2019-03-25T07:57:20.500Z,9.32
2019-03-25T07:58:20.467Z,9.51
2019-03-25T07:59:20.479Z,9.33
2019-03-25T08:00:20.440Z,9.29
2019-03-25T08:01:20.435Z,9.02
2019-03-25T08:02:20.422Z,8.94
2019-03-25T08:03:20.402Z,8.87
2019-03-25T08:04:25.424Z,8.89
2019-03-25T08:05:20.379Z,9.20
2019-03-25T08:06:20.372Z,9.71
2019-03-25T08:07:20.374Z,10.15
2019-03-25T08:08:20.342Z,10.66
2019-03-25T08:09:20.347Z,11.11
2019-03-25T08:10:20.325Z,11.10
2019-03-25T08:11:20.312Z,11.55
2019-03-25T08:12:20.301Z,11.60
2019-03-25T08:13:20.440Z,11.69
2019-03-25T08:14:20.276Z,11.72
2019-03-25T08:15:25.308Z,11.57
2019-03-25T08:16:20.252Z,11.04
2019-03-25T08:17:20.248Z,10.96
2019-03-25T08:18:20.229Z,10.51
2019-03-25T08:19:20.223Z,10.33
2019-03-25T08:20:20.206Z,10.22
2019-03-25T08:21:20.196Z,10.04
2019-03-25T08:22:20.192Z,10.02
2019-03-25T08:23:20.174Z,9.83
2019-03-25T08:24:20.165Z,9.79
2019-03-25T08:25:20.156Z,9.76
2019-03-25T08:26:25.165Z,9.69
2019-03-25T08:27:20.132Z,9.74
2019-03-25T08:28:20.115Z,9.66
2019-03-25T08:29:20.104Z,9.65
2019-03-25T08:30:20.095Z,9.81
2019-03-25T08:31:20.082Z,10.02
2019-03-25T08:32:20.077Z,10.47
2019-03-25T08:33:20.059Z,10.51
2019-03-25T08:34:20.069Z,10.29
2019-03-25T08:35:20.043Z,10.26
2019-03-25T08:36:20.029Z,10.27
2019-03-25T08:37:25.064Z,10.09
2019-03-25T08:38:20.001Z,10.08
2019-03-25T08:39:19.994Z,9.99
2019-03-25T08:40:19.987Z,9.83
2019-03-25T08:41:19.969Z,9.71
2019-03-25T08:42:19.957Z,9.76
2019-03-25T08:43:19.946Z,9.86
2019-03-25T08:44:19.932Z,9.68
2019-03-25T08:45:19.921Z,9.65
2019-03-25T08:46:19.913Z,9.72
2019-03-25T08:47:19.902Z,9.69
2019-03-25T08:48:24.913Z,9.69
2019-03-25T08:49:19.896Z,9.72
2019-03-25T08:50:19.865Z,9.75
2019-03-25T08:51:19.853Z,10.09
2019-03-25T08:52:19.855Z,10.07
2019-03-25T08:53:19.831Z,10.05
2019-03-25T08:54:19.821Z,9.87
2019-03-25T08:55:19.814Z,9.93
2019-03-25T08:56:19.799Z,9.94
2019-03-25T08:57:19.799Z,10.05
2019-03-25T08:58:19.784Z,10.18
2019-03-25T08:59:24.793Z,10.15
2019-03-25T09:00:19.752Z,10.34
2019-03-25T09:01:19.745Z,11.02
2019-03-25T09:02:19.733Z,10.89
2019-03-25T09:03:19.725Z,10.74
2019-03-25T09:04:19.707Z,10.52
2019-03-25T09:05:19.693Z,10.86
2019-03-25T09:06:19.683Z,10.61
2019-03-25T09:07:19.679Z,10.32
2019-03-25T09:08:19.662Z,10.04
2019-03-25T09:09:19.650Z,10.02
2019-03-25T09:10:24.658Z,10.15
2019-03-25T09:11:19.625Z,10.33
2019-03-25T09:12:19.621Z,10.60
2019-03-25T09:13:19.604Z,10.67
2019-03-25T09:14:19.595Z,10.56
2019-03-25T09:15:19.585Z,10.67
2019-03-25T09:16:19.582Z,10.81
2019-03-25T09:17:19.572Z,10.74
2019-03-25T09:18:19.555Z,10.68
2019-03-25T09:19:19.540Z,10.53
2019-03-25T09:20:19.564Z,10.53
2019-03-25T09:21:24.547Z,10.48
2019-03-25T09:22:19.517Z,10.59
2019-03-25T09:23:19.489Z,10.61
2019-03-25T09:24:19.478Z,11.07
2019-03-25T09:25:19.476Z,11.02
2019-03-25T09:26:19.467Z,10.92
2019-03-25T09:27:19.456Z,10.84
2019-03-25T09:28:24.232Z,10.73
2019-03-25T09:29:20.447Z,10.73
2019-03-25T09:30:19.414Z,10.56
2019-03-25T09:31:19.402Z,10.30
2019-03-25T09:32:24.413Z,10.44
2019-03-25T09:33:19.401Z,11.35
2019-03-25T09:34:19.365Z,12.13
2019-03-25T09:35:19.356Z,12.12
2019-03-25T09:36:19.345Z,12.42
2019-03-25T09:37:19.353Z,12.57
2019-03-25T09:38:19.321Z,12.45
2019-03-25T09:39:19.309Z,12.70
2019-03-25T09:40:19.297Z,12.21
2019-03-25T09:41:19.293Z,11.79
2019-03-25T09:42:19.294Z,11.91
2019-03-25T09:43:24.286Z,12.52
2019-03-25T09:44:19.252Z,12.24
2019-03-25T09:45:19.241Z,11.80
2019-03-25T09:46:19.231Z,11.70
2019-03-25T09:47:19.231Z,11.55
2019-03-25T09:48:19.228Z,11.42
2019-03-25T09:49:19.195Z,11.32
2019-03-25T09:50:19.193Z,11.18
2019-03-25T09:51:19.176Z,11.17
2019-03-25T09:52:19.177Z,11.19
2019-03-25T09:53:19.162Z,11.27
2019-03-25T09:54:24.164Z,11.21
2019-03-25T09:55:19.129Z,11.00
2019-03-25T09:56:19.115Z,10.91
2019-03-25T09:57:19.636Z,10.85
2019-03-25T09:58:19.097Z,10.84
2019-03-25T09:59:19.100Z,10.85
2019-03-25T10:00:19.070Z,10.78
2019-03-25T10:01:19.062Z,10.79
2019-03-25T10:02:19.064Z,10.79
2019-03-25T10:03:19.036Z,10.74
2019-03-25T10:04:20.189Z,10.86
2019-03-25T10:05:24.059Z,10.96
2019-03-25T10:06:19.002Z,10.99
2019-03-25T10:07:19.026Z,10.94
2019-03-25T10:08:19.103Z,11.72
2019-03-25T10:09:19.022Z,11.70
2019-03-25T10:10:18.970Z,11.62
2019-03-25T10:11:18.952Z,11.47
2019-03-25T10:12:18.948Z,11.65
2019-03-25T10:13:18.924Z,11.64
2019-03-25T10:14:18.921Z,11.69
2019-03-25T10:15:18.961Z,11.73
2019-03-25T10:16:23.938Z,11.76
2019-03-25T10:17:18.912Z,11.60
2019-03-25T10:18:18.882Z,11.73
2019-03-25T10:19:18.892Z,11.79
2019-03-25T10:20:18.844Z,12.19
2019-03-25T10:21:18.832Z,12.19
2019-03-25T10:22:18.837Z,12.37
2019-03-25T10:23:18.815Z,12.67
2019-03-25T10:24:18.847Z,12.86
2019-03-25T10:25:18.787Z,12.72
2019-03-25T10:26:18.782Z,12.46
2019-03-25T10:27:23.808Z,12.29
2019-03-25T10:28:18.758Z,12.17
2019-03-25T10:29:18.753Z,12.05
2019-03-25T10:30:18.746Z,12.07
2019-03-25T10:31:18.719Z,12.34
2019-03-25T10:32:18.770Z,12.14
2019-03-25T10:33:18.708Z,12.12
2019-03-25T10:34:18.693Z,11.75
2019-03-25T10:35:18.698Z,11.55
2019-03-25T10:36:18.668Z,11.40
2019-03-25T10:37:18.666Z,11.69
2019-03-25T10:38:23.777Z,11.76
2019-03-25T10:39:18.692Z,11.75
2019-03-25T10:40:18.656Z,11.78
2019-03-25T10:41:18.610Z,11.60
2019-03-25T10:42:18.608Z,11.58
2019-03-25T10:43:18.586Z,11.60
2019-03-25T10:44:18.588Z,11.72
2019-03-25T10:45:18.575Z,11.70
2019-03-25T10:46:18.590Z,11.62
2019-03-25T10:47:18.550Z,11.76
2019-03-25T10:48:18.552Z,11.80
2019-03-25T10:49:23.545Z,11.96
2019-03-25T10:50:18.529Z,12.02
2019-03-25T10:51:18.496Z,11.96
2019-03-25T10:52:18.762Z,12.01
2019-03-25T10:53:18.477Z,11.80
2019-03-25T10:54:18.526Z,11.67
2019-03-25T10:55:18.461Z,11.52
2019-03-25T10:56:18.438Z,11.40
2019-03-25T10:57:18.427Z,11.46
2019-03-25T10:58:18.419Z,11.79
2019-03-25T10:59:18.437Z,12.72
2019-03-25T11:00:23.418Z,13.23
2019-03-25T11:01:18.415Z,13.60
2019-03-25T11:02:18.375Z,14.00
2019-03-25T11:03:18.384Z,14.20
2019-03-25T11:04:18.350Z,14.52
2019-03-25T11:05:18.338Z,14.57
2019-03-25T11:06:18.334Z,14.52
2019-03-25T11:07:18.401Z,14.51
2019-03-25T11:08:18.314Z,14.64
2019-03-25T11:09:18.317Z,14.72
2019-03-25T11:10:18.289Z,15.10
2019-03-25T11:11:23.312Z,14.86
2019-03-25T11:12:18.267Z,14.58
2019-03-25T11:13:18.262Z,14.50
2019-03-25T11:14:18.246Z,14.24
2019-03-25T11:15:18.225Z,13.95
2019-03-25T11:16:18.216Z,13.69
2019-03-25T11:17:18.202Z,14.14
2019-03-25T11:18:18.195Z,13.69
2019-03-25T11:19:18.194Z,13.23
2019-03-25T11:20:18.173Z,13.08
2019-03-25T11:21:18.155Z,12.97
2019-03-25T11:22:23.177Z,12.78
2019-03-25T11:23:18.166Z,12.75
2019-03-25T11:24:18.124Z,12.70
2019-03-25T11:25:18.128Z,12.60
2019-03-25T11:26:18.138Z,12.79
2019-03-25T11:27:18.098Z,13.04
2019-03-25T11:28:18.083Z,13.25
2019-03-25T11:29:18.068Z,13.17
2019-03-25T11:30:18.056Z,13.46
2019-03-25T11:31:18.106Z,13.57
2019-03-25T11:32:18.070Z,13.82
2019-03-25T11:33:23.090Z,14.35
2019-03-25T11:34:18.017Z,14.20
2019-03-25T11:35:18.002Z,14.18
2019-03-25T11:36:17.986Z,14.06
2019-03-25T11:37:17.974Z,14.68
2019-03-25T11:38:17.979Z,15.13
2019-03-25T11:39:17.954Z,15.11
2019-03-25T11:40:17.955Z,15.07
2019-03-25T11:41:17.932Z,14.57
2019-03-25T11:42:17.919Z,14.18
2019-03-25T11:43:17.924Z,13.70
2019-03-25T11:44:23.025Z,13.45
2019-03-25T11:45:17.891Z,13.41
2019-03-25T11:46:17.874Z,13.11
2019-03-25T11:47:17.862Z,12.83
2019-03-25T11:48:17.908Z,12.74
2019-03-25T11:49:17.839Z,12.83
2019-03-25T11:50:17.833Z,12.74
2019-03-25T11:51:17.819Z,12.83
2019-03-25T11:52:17.809Z,12.79
2019-03-25T11:53:17.806Z,12.71
2019-03-25T11:54:17.783Z,12.70
2019-03-25T11:55:22.807Z,12.41
2019-03-25T11:56:17.764Z,12.38
2019-03-25T11:57:17.771Z,12.38
2019-03-25T11:58:17.748Z,12.41
2019-03-25T11:59:18.949Z,12.74
2019-03-25T12:00:17.720Z,13.05
2019-03-25T12:01:17.706Z,13.39
2019-03-25T12:02:18.034Z,13.52
2019-03-25T12:03:17.704Z,13.63
2019-03-25T12:04:17.695Z,13.96
2019-03-25T12:05:17.671Z,13.84
2019-03-25T12:06:22.678Z,13.59
2019-03-25T12:07:17.639Z,13.60
2019-03-25T12:08:17.637Z,13.42
2019-03-25T12:09:17.611Z,13.38
2019-03-25T12:10:17.608Z,13.42
2019-03-25T12:11:17.585Z,13.46
2019-03-25T12:12:17.575Z,13.60
2019-03-25T12:13:17.582Z,13.96
2019-03-25T12:14:17.551Z,14.15
2019-03-25T12:15:17.542Z,14.03
2019-03-25T12:16:17.528Z,13.84
2019-03-25T12:17:22.544Z,13.62
2019-03-25T12:18:17.522Z,13.42
2019-03-25T12:19:17.495Z,13.26
2019-03-25T12:20:17.485Z,13.11
2019-03-25T12:21:17.492Z,12.86
2019-03-25T12:22:17.465Z,12.90
2019-03-25T12:23:25.931Z,12.68
2019-03-25T12:24:18.436Z,12.72
2019-03-25T12:25:17.426Z,12.60
2019-03-25T12:26:17.413Z,12.53
2019-03-25T12:27:17.438Z,12.49
2019-03-25T12:28:22.434Z,12.39
2019-03-25T12:29:17.385Z,12.38
2019-03-25T12:30:17.393Z,12.32
2019-03-25T12:31:17.366Z,12.21
2019-03-25T12:32:17.347Z,12.29
2019-03-25T12:33:17.352Z,12.34
2019-03-25T12:34:17.424Z,13.59
2019-03-25T12:35:17.321Z,14.36
2019-03-25T12:36:17.302Z,14.12
2019-03-25T12:37:17.342Z,13.67
2019-03-25T12:38:17.298Z,13.51
2019-03-25T12:39:22.343Z,13.25
2019-03-25T12:40:17.282Z,13.17
2019-03-25T12:41:17.244Z,12.93
2019-03-25T12:42:17.233Z,12.77
2019-03-25T12:43:17.238Z,12.56
2019-03-25T12:44:17.213Z,12.13
2019-03-25T12:45:17.255Z,11.58
2019-03-25T12:46:17.190Z,11.28
2019-03-25T12:47:17.179Z,11.04
2019-03-25T12:48:17.175Z,10.79
2019-03-25T12:49:17.188Z,10.48
2019-03-25T12:50:22.192Z,10.44
2019-03-25T12:51:17.153Z,10.30
2019-03-25T12:52:17.119Z,10.22
2019-03-25T12:53:17.122Z,10.17
2019-03-25T12:54:17.097Z,10.23
2019-03-25T12:55:17.086Z,10.18
2019-03-25T12:56:17.078Z,10.33
2019-03-25T12:57:17.113Z,10.18
2019-03-25T12:58:17.069Z,10.27
2019-03-25T12:59:17.043Z,10.09
2019-03-25T13:00:17.031Z,10.05
2019-03-25T13:01:22.043Z,10.01
2019-03-25T13:02:17.012Z,10.04
2019-03-25T13:03:17.007Z,10.17
2019-03-25T13:04:16.984Z,10.23
2019-03-25T13:05:17.061Z,10.33
2019-03-25T13:06:16.963Z,10.40
2019-03-25T13:07:16.961Z,10.47
2019-03-25T13:08:16.974Z,10.64
2019-03-25T13:09:16.927Z,10.68